Time;durP1;ratioP1;P1;durP2;ratioP2;P2;SDS_P1;SDS_P2;PMS_P1;PMS_P2;Temp;Humidity;BMP_temperature;BMP_pressure;BME280_temperature;BME280_humidity;BME280_pressure;Samples;Min_cycle;Max_cycle;Signal;HPM_P1;HPM_P2
2021/09/10 00:00:10;;;;;;;;;;;19.90;99.90;;;;;;5055257;28;20440;-81
2021/09/10 00:02:36;;;;;;;17.63;4.55;;;19.80;99.90;;;;;;5056106;28;20270;-80
2021/09/10 00:05:04;;;;;;;14.18;4.53;;;19.80;99.90;;;;;;5055814;28;20103;-80
2021/09/10 00:07:30;;;;;;;12.85;3.88;;;19.70;99.90;;;;;;5055923;28;20025;-80
2021/09/10 00:09:55;;;;;;;12.48;4.10;;;20.00;99.90;;;;;;5054648;28;20443;-81
2021/09/10 00:12:21;;;;;;;12.20;4.53;;;19.70;99.90;;;;;;5055790;28;20469;-80
2021/09/10 00:14:47;;;;;;;14.73;4.43;;;19.60;99.90;;;;;;5055847;28;20021;-80
2021/09/10 00:17:12;;;;;;;14.13;4.53;;;19.60;99.90;;;;;;5055795;28;20025;-80
2021/09/10 00:19:38;;;;;;;17.23;4.63;;;19.60;99.90;;;;;;5055721;28;20017;-80
2021/09/10 00:22:04;;;;;;;16.42;4.82;;;19.50;99.90;;;;;;5055695;28;20021;-80
2021/09/10 00:24:30;;;;;;;15.40;4.82;;;19.40;99.90;;;;;;5054337;28;20033;-81
2021/09/10 00:26:56;;;;;;;10.95;4.47;;;19.40;99.90;;;;;;5055738;28;20032;-80
2021/09/10 00:29:21;;;;;;;;;;;19.40;99.90;;;;;;5055965;28;20100;-80
2021/09/10 00:31:47;;;;;;;15.10;5.43;;;19.40;99.90;;;;;;5055493;28;19905;-80
2021/09/10 00:34:14;;;;;;;14.98;5.28;;;19.20;99.90;;;;;;5055854;28;20025;-80
2021/09/10 00:36:40;;;;;;;14.40;5.55;;;19.40;99.90;;;;;;5054126;28;20021;-80
2021/09/10 00:39:06;;;;;;;12.93;5.45;;;19.60;99.90;;;;;;5054151;28;20029;-80
2021/09/10 00:41:32;;;;;;;16.85;5.05;;;19.50;99.90;;;;;;5055290;28;20485;-81
2021/09/10 00:43:59;;;;;;;17.52;5.00;;;19.40;99.90;;;;;;5054015;28;20082;-80
2021/09/10 00:46:24;;;;;;;16.42;5.10;;;19.60;99.90;;;;;;5055405;28;20017;-80
2021/09/10 00:48:50;;;;;;;13.98;5.30;;;19.60;99.90;;;;;;5055236;28;20099;-80
2021/09/10 00:51:16;;;;;;;11.35;4.10;;;19.50;99.90;;;;;;5054790;28;20025;-80
2021/09/10 00:53:42;;;;;;;15.48;4.50;;;19.50;99.90;;;;;;5053038;28;20033;-80
2021/09/10 00:56:08;;;;;;;13.68;5.25;;;19.60;99.90;;;;;;5055040;28;20029;-80
2021/09/10 00:58:34;;;;;;;19.63;5.22;;;19.60;99.90;;;;;;5055106;28;20021;-80
2021/09/10 01:00:59;;;;;;;;;;;19.70;99.90;;;;;;5055415;28;20071;-80
2021/09/10 01:03:25;;;;;;;16.00;4.78;;;19.60;99.90;;;;;;5054876;28;19908;-80
2021/09/10 01:05:51;;;;;;;12.45;5.10;;;19.60;99.90;;;;;;5054661;28;20079;-80
2021/09/10 01:08:18;;;;;;;12.68;5.20;;;19.30;99.90;;;;;;5053544;28;20021;-80
2021/09/10 01:10:49;;;;;;;13.43;5.70;;;19.10;99.90;;;;;;5054770;28;20021;-80
2021/09/10 01:13:14;;;;;;;13.95;4.80;;;19.10;99.90;;;;;;5054693;28;20390;-80
2021/09/10 01:15:40;;;;;;;15.85;5.60;;;19.20;99.90;;;;;;5054758;28;20028;-80
2021/09/10 01:18:07;;;;;;;15.48;5.60;;;19.30;99.90;;;;;;5054859;28;20041;-80
2021/09/10 01:20:33;;;;;;;14.52;5.30;;;19.20;99.90;;;;;;5053300;28;20108;-80
2021/09/10 01:22:59;;;;;;;14.57;6.00;;;19.20;99.90;;;;;;5053267;28;20032;-79
2021/09/10 01:25:26;;;;;;;15.05;5.55;;;19.00;99.90;;;;;;5054462;28;20038;-80
2021/09/10 01:27:54;;;;;;;13.45;5.38;;;18.90;99.90;;;;;;5053146;28;20035;-80
2021/09/10 01:30:22;;;;;;;13.32;5.70;;;18.90;99.90;;;;;;5054541;28;20508;-80
2021/09/10 01:32:49;;;;;;;18.15;5.80;;;18.90;99.90;;;;;;5054319;28;20116;-79
2021/09/10 01:35:15;;;;;;;20.77;6.18;;;18.90;99.90;;;;;;5054338;28;20092;-80
2021/09/10 01:37:41;;;;;;;17.05;6.43;;;18.80;99.90;;;;;;5052989;28;20053;-80
2021/09/10 01:40:08;;;;;;;18.17;6.22;;;18.70;99.90;;;;;;5054180;28;20021;-79
2021/09/10 01:42:34;;;;;;;17.15;6.75;;;18.60;99.90;;;;;;5054121;28;20025;-80
2021/09/10 01:45:00;;;;;;;16.75;6.70;;;18.50;99.90;;;;;;5054367;28;20016;-81
2021/09/10 01:47:26;;;;;;;;;;;18.40;99.90;;;;;;5053208;28;20033;-79
2021/09/10 01:49:51;;;;;;;16.63;6.85;;;18.50;99.90;;;;;;5054522;28;19905;-79
2021/09/10 01:52:17;;;;;;;;;;;18.60;99.90;;;;;;5054454;28;20021;-80
2021/09/10 01:54:43;;;;;;;15.00;5.70;;;18.60;99.90;;;;;;5053850;28;19916;-79
2021/09/10 01:57:09;;;;;;;12.60;5.95;;;18.70;99.90;;;;;;5052341;28;20481;-79
2021/09/10 01:59:34;;;;;;;16.13;6.15;;;18.80;99.90;;;;;;5053855;28;20029;-80
2021/09/10 02:02:00;;;;;;;17.80;6.13;;;18.80;99.90;;;;;;5053864;28;20029;-80
2021/09/10 02:04:26;;;;;;;;;;;18.80;99.90;;;;;;5053929;28;20043;-80
2021/09/10 02:06:51;;;;;;;16.75;6.20;;;18.80;99.90;;;;;;5054095;28;19963;-80
2021/09/10 02:09:17;;;;;;;;;;;18.80;99.90;;;;;;5054085;28;20029;-80
2021/09/10 02:11:44;;;;;;;13.95;5.85;;;18.80;99.90;;;;;;5052379;28;19911;-79
2021/09/10 02:14:09;;;;;;;12.68;5.88;;;18.80;99.90;;;;;;5053529;28;20017;-80
2021/09/10 02:16:35;;;;;;;13.05;5.75;;;18.80;99.90;;;;;;5053574;28;20037;-80
2021/09/10 02:19:01;;;;;;;18.20;7.05;;;18.90;99.90;;;;;;5053806;28;20013;-80
2021/09/10 02:21:27;;;;;;;;;;;18.90;99.90;;;;;;5054121;28;20035;-80
2021/09/10 02:23:52;;;;;;;12.70;4.97;;;19.00;99.90;;;;;;5053436;28;19912;-80
2021/09/10 02:26:18;;;;;;;;;;;19.10;99.90;;;;;;5053798;28;20021;-80
2021/09/10 02:28:44;;;;;;;13.48;5.55;;;19.10;99.90;;;;;;5053400;28;19904;-80
2021/09/10 02:31:09;;;;;;;16.73;5.95;;;19.00;99.90;;;;;;5053313;28;20074;-80
2021/09/10 02:33:35;;;;;;;14.15;6.13;;;19.00;99.90;;;;;;5053290;28;20104;-80
2021/09/10 02:36:01;;;;;;;16.50;6.10;;;18.80;99.90;;;;;;5053752;28;20029;-80
2021/09/10 02:38:26;;;;;;;;;;;18.80;99.90;;;;;;5053961;28;20084;-79
2021/09/10 02:40:53;;;;;;;15.07;6.45;;;18.70;99.90;;;;;;5053274;28;19950;-81
2021/09/10 02:43:19;;;;;;;19.42;6.90;;;18.50;99.90;;;;;;5053265;28;20079;-80
2021/09/10 02:45:44;;;;;;;13.95;6.30;;;18.50;99.90;;;;;;5053358;28;20035;-80
2021/09/10 02:48:10;;;;;;;18.88;6.38;;;18.60;99.90;;;;;;5053181;28;20049;-80
2021/09/10 02:50:36;;;;;;;;;;;18.60;99.90;;;;;;5053541;28;20025;-80
2021/09/10 02:53:02;;;;;;;13.55;5.85;;;18.60;99.90;;;;;;5053014;28;19956;-80
2021/09/10 02:55:28;;;;;;;12.93;5.55;;;18.60;99.90;;;;;;5053121;28;20025;-80
2021/09/10 02:57:54;;;;;;;15.85;6.35;;;18.70;99.90;;;;;;5053026;28;20052;-80
2021/09/10 03:00:19;;;;;;;15.60;6.10;;;18.80;99.90;;;;;;5053000;28;20036;-80
2021/09/10 03:02:45;;;;;;;13.90;5.70;;;18.70;99.90;;;;;;5052924;28;20021;-80
2021/09/10 03:05:11;;;;;;;;;;;18.90;99.90;;;;;;5053046;28;20053;-81
2021/09/10 03:07:37;;;;;;;13.80;5.97;;;19.00;99.90;;;;;;5052953;28;19911;-80
2021/09/10 03:10:04;;;;;;;15.93;6.40;;;18.90;99.90;;;;;;5051551;28;20021;-80
2021/09/10 03:12:31;;;;;;;17.58;6.30;;;18.80;99.90;;;;;;5052761;28;20060;-80
2021/09/10 03:14:57;;;;;;;15.00;6.80;;;18.60;99.90;;;;;;5053081;28;20045;-79
2021/09/10 03:17:22;;;;;;;17.67;6.70;;;18.70;99.90;;;;;;5056891;28;20059;-80
2021/09/10 03:19:48;;;;;;;16.92;6.20;;;18.90;99.90;;;;;;5056851;28;20017;-80
2021/09/10 03:22:14;;;;;;;17.58;6.72;;;18.80;99.90;;;;;;5056741;28;20382;-80
2021/09/10 03:24:39;;;;;;;;;;;18.70;99.90;;;;;;5057112;28;20032;-80
2021/09/10 03:27:05;;;;;;;19.25;6.88;;;18.80;99.90;;;;;;5056724;28;19923;-80
2021/09/10 03:29:31;;;;;;;;;;;18.70;99.90;;;;;;5057192;28;20025;-80
2021/09/10 03:31:56;;;;;;;16.48;6.82;;;18.70;99.90;;;;;;5056705;28;20367;-80
2021/09/10 03:34:22;;;;;;;;;;;18.60;99.90;;;;;;5056915;28;20108;-80
2021/09/10 03:36:48;;;;;;;18.00;7.28;;;18.70;99.90;;;;;;5056522;28;19912;-80
2021/09/10 03:39:15;;;;;;;19.05;6.82;;;18.50;99.90;;;;;;5056778;28;20025;-80
2021/09/10 03:41:41;;;;;;;18.05;7.00;;;18.50;99.90;;;;;;5056593;28;20029;-80
2021/09/10 03:44:06;;;;;;;20.13;7.60;;;18.60;99.90;;;;;;5056406;28;20528;-80
2021/09/10 03:46:32;;;;;;;;;;;18.70;99.90;;;;;;5055538;28;20118;-80
2021/09/10 03:48:58;;;;;;;14.30;6.40;;;18.60;99.90;;;;;;5055110;28;19912;-80
2021/09/10 03:51:23;;;;;;;17.10;7.75;;;18.70;99.90;;;;;;5056330;28;20028;-80
2021/09/10 03:53:49;;;;;;;;;;;18.80;99.90;;;;;;5056764;28;20032;-80
2021/09/10 03:56:15;;;;;;;15.38;6.35;;;18.70;99.90;;;;;;5056209;28;19915;-80
2021/09/10 03:58:41;;;;;;;;;;;18.80;99.90;;;;;;5055291;28;20029;-80
2021/09/10 04:01:07;;;;;;;20.33;8.88;;;18.90;99.90;;;;;;5054827;28;19919;-80
2021/09/10 04:03:32;;;;;;;;;;;18.60;99.90;;;;;;5055489;28;20058;-80
2021/09/10 04:05:58;;;;;;;17.20;7.50;;;18.50;99.90;;;;;;5055133;28;19955;-80
2021/09/10 04:08:24;;;;;;;20.00;7.45;;;18.50;99.90;;;;;;5055532;28;20032;-80
2021/09/10 04:10:49;;;;;;;;;;;18.60;99.90;;;;;;5056583;28;20067;-80
2021/09/10 04:13:15;;;;;;;18.63;8.07;;;18.50;99.90;;;;;;5056178;28;19913;-80
2021/09/10 04:15:41;;;;;;;;;;;18.40;99.90;;;;;;5056304;28;20018;-80
2021/09/10 04:18:06;;;;;;;19.73;9.68;;;18.40;99.90;;;;;;5055938;28;19911;-80
2021/09/10 04:20:35;;;;;;;;;;;18.30;99.90;;;;;;5056174;28;20078;-79
2021/09/10 04:23:01;;;;;;;17.45;7.90;;;18.30;99.90;;;;;;5055882;28;19904;-80
2021/09/10 04:25:27;;;;;;;16.85;8.60;;;18.30;99.90;;;;;;5055880;28;20037;-80
2021/09/10 04:27:53;;;;;;;18.88;9.10;;;18.20;99.90;;;;;;5055485;28;20044;-79
2021/09/10 04:30:19;;;;;;;17.40;8.63;;;18.20;99.90;;;;;;5054216;28;20108;-80
2021/09/10 04:32:45;;;;;;;;;;;18.10;99.90;;;;;;5055883;28;20150;-80
2021/09/10 04:35:12;;;;;;;13.50;7.25;;;18.10;99.90;;;;;;5055742;28;19940;-80
2021/09/10 04:37:39;;;;;;;15.80;8.00;;;18.20;99.90;;;;;;5054148;28;20017;-80
2021/09/10 04:40:05;;;;;;;17.40;7.60;;;18.30;99.90;;;;;;5055402;28;20017;-79
2021/09/10 04:42:31;;;;;;;22.00;10.43;;;18.30;99.90;;;;;;5055263;28;20502;-80
2021/09/10 04:44:57;;;;;;;;;;;18.10;99.90;;;;;;5054408;28;20043;-80
2021/09/10 04:47:25;;;;;;;25.98;9.48;;;18.10;99.90;;;;;;5055453;28;19905;-80
2021/09/10 04:49:51;;;;;;;14.60;8.27;;;18.10;99.90;;;;;;5055195;28;20017;-80
2021/09/10 04:52:16;;;;;;;;;;;18.20;99.90;;;;;;5054304;28;20018;-79
2021/09/10 04:54:42;;;;;;;17.02;7.47;;;18.20;99.90;;;;;;5055526;28;19908;-80
2021/09/10 04:57:08;;;;;;;;;;;18.30;99.90;;;;;;5055784;28;20051;-80
2021/09/10 04:59:33;;;;;;;19.58;7.65;;;18.30;99.90;;;;;;5054979;28;20293;-79
2021/09/10 05:01:59;;;;;;;;;;;18.40;99.90;;;;;;5055409;28;20032;-79
2021/09/10 05:04:25;;;;;;;15.27;6.88;;;18.60;99.90;;;;;;5053414;28;19913;-79
2021/09/10 05:06:51;;;;;;;;;;;18.50;99.90;;;;;;5053768;28;20035;-80
2021/09/10 05:09:17;;;;;;;17.85;7.60;;;18.30;99.90;;;;;;5053607;28;19905;-79
2021/09/10 05:11:42;;;;;;;;;;;18.40;99.90;;;;;;5055166;28;20385;-79
2021/09/10 05:14:09;;;;;;;17.73;7.18;;;18.40;99.90;;;;;;5054732;28;19915;-79
2021/09/10 05:16:36;;;;;;;16.48;7.18;;;18.50;99.90;;;;;;5054825;28;20493;-79
2021/09/10 05:19:03;;;;;;;14.07;6.85;;;18.50;99.90;;;;;;5054628;28;20021;-79
2021/09/10 05:21:28;;;;;;;14.73;6.55;;;18.50;99.90;;;;;;5054599;28;20028;-79
2021/09/10 05:23:54;;;;;;;18.52;7.60;;;18.40;99.90;;;;;;5054526;28;20017;-80
2021/09/10 05:26:20;;;;;;;;;;;18.30;99.90;;;;;;5054942;28;20151;-80
2021/09/10 05:28:46;;;;;;;24.30;8.13;;;18.20;99.90;;;;;;5054491;28;19908;-79
2021/09/10 05:31:12;;;;;;;16.70;8.10;;;18.20;99.90;;;;;;5054406;28;20029;-80
2021/09/10 05:33:37;;;;;;;20.65;8.68;;;18.30;99.90;;;;;;5054265;28;20087;-79
2021/09/10 05:36:03;;;;;;;;;;;18.30;99.90;;;;;;5054706;28;20017;-79
2021/09/10 05:38:29;;;;;;;18.45;8.15;;;18.20;99.90;;;;;;5053664;28;19904;-79
2021/09/10 05:40:55;;;;;;;;;;;18.30;99.90;;;;;;5054851;28;20052;-79
2021/09/10 05:43:20;;;;;;;18.02;7.90;;;18.20;99.90;;;;;;5052907;28;20288;-79
2021/09/10 05:45:46;;;;;;;;;;;18.20;99.90;;;;;;5054397;28;20106;-79
2021/09/10 05:48:12;;;;;;;17.40;8.27;;;18.10;99.90;;;;;;5054457;28;20383;-79
2021/09/10 05:50:37;;;;;;;;;;;18.20;99.90;;;;;;5054415;28;20032;-79
2021/09/10 05:53:05;;;;;;;13.73;7.57;;;18.30;99.90;;;;;;5054006;28;19909;-80
2021/09/10 05:55:31;;;;;;;12.02;5.45;;;18.40;99.90;;;;;;5052661;28;20074;-79
2021/09/10 05:57:57;;;;;;;11.15;4.72;;;18.40;99.90;;;;;;5053909;28;20021;-79
2021/09/10 06:00:22;;;;;;;;;;;18.50;99.90;;;;;;5052984;28;20017;-79
2021/09/10 06:02:48;;;;;;;14.52;7.00;;;18.60;99.90;;;;;;5053768;28;19912;-79
2021/09/10 06:05:14;;;;;;;;;;;18.50;99.90;;;;;;5052618;28;20505;-80
2021/09/10 06:07:40;;;;;;;12.85;5.85;;;18.50;99.90;;;;;;5053773;28;20289;-80
2021/09/10 06:10:05;;;;;;;;;;;18.70;99.90;;;;;;5054374;28;20028;-79
2021/09/10 06:12:31;;;;;;;14.52;6.18;;;18.70;99.90;;;;;;5053629;28;19995;-79
2021/09/10 06:14:57;;;;;;;14.82;5.47;;;18.60;99.90;;;;;;5053629;28;20428;-80
2021/09/10 06:17:23;;;;;;;;;;;18.80;99.90;;;;;;5052693;28;20021;-80
2021/09/10 06:19:48;;;;;;;14.68;7.28;;;18.70;99.90;;;;;;5053581;28;20030;-79
2021/09/10 06:22:15;;;;;;;;;;;18.60;99.90;;;;;;5054009;28;20509;-79
2021/09/10 06:24:41;;;;;;;15.13;7.63;;;18.60;99.90;;;;;;5052144;28;20331;-80
2021/09/10 06:27:07;;;;;;;18.20;7.22;;;18.60;99.90;;;;;;5053483;28;20147;-80
2021/09/10 06:29:33;;;;;;;17.70;7.47;;;18.60;99.90;;;;;;5053396;28;20039;-79
2021/09/10 06:31:58;;;;;;;14.32;6.45;;;18.70;99.90;;;;;;5053369;28;20108;-79
2021/09/10 06:34:26;;;;;;;;;;;18.70;99.90;;;;;;5053733;28;20375;-80
2021/09/10 06:36:51;;;;;;;12.23;6.15;;;18.70;99.90;;;;;;5053284;28;20368;-80
2021/09/10 06:39:18;;;;;;;14.85;6.38;;;18.70;99.90;;;;;;5053263;28;20017;-80
2021/09/10 06:41:44;;;;;;;18.35;6.03;;;18.80;99.90;;;;;;5053255;28;20075;-79
2021/09/10 06:44:11;;;;;;;15.50;6.15;;;18.90;99.90;;;;;;5053307;28;20505;-80
2021/09/10 06:46:37;;;;;;;15.55;6.63;;;18.80;99.90;;;;;;5051924;28;20033;-79
2021/09/10 06:49:03;;;;;;;13.80;6.25;;;18.80;99.90;;;;;;5053092;28;20044;-79
2021/09/10 06:51:29;;;;;;;11.98;5.68;;;18.70;99.90;;;;;;5051092;28;20092;-79
2021/09/10 06:53:55;;;;;;;12.15;5.60;;;18.80;99.90;;;;;;5053253;28;20147;-79
2021/09/10 06:56:21;;;;;;;;;;;18.90;99.90;;;;;;5052208;28;20021;-80
2021/09/10 06:58:46;;;;;;;12.48;5.43;;;19.00;99.90;;;;;;5053121;28;19955;-79
2021/09/10 07:01:12;;;;;;;12.30;5.95;;;19.30;99.90;;;;;;5053003;28;20044;-80
2021/09/10 07:03:38;;;;;;;16.65;8.02;;;19.30;99.90;;;;;;5052985;28;20393;-80
2021/09/10 07:06:06;;;;;;;17.90;6.40;;;19.20;99.90;;;;;;5052600;28;20060;-80
2021/09/10 07:08:32;;;;;;;11.95;5.47;;;19.30;99.90;;;;;;5053103;28;20021;-79
2021/09/10 07:11:01;;;;;;;15.23;5.88;;;19.40;99.90;;;;;;5052971;28;20024;-80
2021/09/10 07:13:27;;;;;;;14.07;5.63;;;19.20;99.90;;;;;;5052832;28;20029;-80
2021/09/10 07:15:53;;;;;;;14.85;6.00;;;19.40;99.90;;;;;;5053038;28;20556;-80
2021/09/10 07:18:20;;;;;;;16.35;6.40;;;19.30;99.90;;;;;;5051411;28;20116;-79
2021/09/10 07:20:47;;;;;;;14.23;5.15;;;19.30;99.90;;;;;;5051543;28;20021;-79
2021/09/10 07:23:13;;;;;;;11.88;4.72;;;19.50;99.90;;;;;;5052795;28;20036;-82
2021/09/10 07:25:39;;;;;;;12.23;5.40;;;19.70;99.90;;;;;;5052732;28;20026;-79
2021/09/10 07:28:06;;;;;;;13.55;5.40;;;19.70;99.90;;;;;;5052759;28;20025;-80
2021/09/10 07:30:33;;;;;;;14.00;5.75;;;19.90;99.90;;;;;;5052782;28;20098;-81
2021/09/10 07:32:59;;;;;;;11.13;5.90;;;19.90;99.90;;;;;;5052545;28;20057;-79
2021/09/10 07:35:25;;;;;;;13.60;5.03;;;19.90;99.90;;;;;;5052690;28;20468;-79
2021/09/10 07:37:51;;;;;;;12.45;5.38;;;20.10;99.90;;;;;;5051431;28;20031;-79
2021/09/10 07:40:17;;;;;;;17.95;5.30;;;19.90;99.90;;;;;;5052680;28;20100;-80
2021/09/10 07:42:43;;;;;;;11.73;4.82;;;20.00;99.90;;;;;;5051353;28;20025;-79
2021/09/10 07:45:11;;;;;;;12.40;5.07;;;20.20;99.90;;;;;;5052649;28;20017;-79
2021/09/10 07:47:37;;;;;;;10.30;4.70;;;20.10;99.90;;;;;;5053267;28;20433;-80
2021/09/10 07:50:04;;;;;;;8.88;4.00;;;20.20;99.90;;;;;;5053151;28;20107;-79
2021/09/10 07:52:29;;;;;;;11.75;4.55;;;20.50;99.90;;;;;;5053198;28;20044;-80
2021/09/10 07:54:55;;;;;;;10.25;4.60;;;20.50;99.90;;;;;;5053246;28;20060;-80
2021/09/10 07:57:21;;;;;;;10.93;5.20;;;20.20;99.90;;;;;;5051490;28;20056;-81
2021/09/10 07:59:47;;;;;;;9.70;4.85;;;20.20;99.90;;;;;;5052623;28;20022;-80
2021/09/10 08:02:13;;;;;;;9.50;5.07;;;20.30;99.90;;;;;;5054773;28;20151;-80
2021/09/10 08:04:39;;;;;;;10.90;4.68;;;20.40;99.90;;;;;;5054836;28;20128;-80
2021/09/10 08:07:04;;;;;;;9.32;4.22;;;20.20;99.90;;;;;;5054774;28;20029;-80
2021/09/10 08:09:30;;;;;;;9.00;3.83;;;20.30;99.90;;;;;;5056432;28;20420;-80
2021/09/10 08:11:56;;;;;;;11.50;4.25;;;20.50;99.90;;;;;;5054911;28;20035;-80
2021/09/10 08:14:22;;;;;;;8.95;3.70;;;20.60;99.90;;;;;;5056078;28;20021;-80
2021/09/10 08:16:47;;;;;;;9.68;3.90;;;20.70;99.90;;;;;;5054688;28;20036;-80
2021/09/10 08:19:14;;;;;;;8.27;3.00;;;20.80;99.90;;;;;;5056234;28;20017;-80
2021/09/10 08:21:40;;;;;;;7.93;3.38;;;21.10;99.90;;;;;;5056193;28;20021;-80
2021/09/10 08:24:09;;;;;;;7.50;3.50;;;21.40;99.90;;;;;;5054594;28;20031;-80
2021/09/10 08:26:35;;;;;;;6.65;3.25;;;21.40;99.90;;;;;;5056031;28;20538;-80
2021/09/10 08:29:00;;;;;;;9.38;3.28;;;21.40;99.90;;;;;;5055871;28;20017;-80
2021/09/10 08:31:26;;;;;;;6.40;2.80;;;21.50;99.90;;;;;;5056013;28;20033;-81
2021/09/10 08:33:52;;;;;;;10.52;3.42;;;21.50;99.90;;;;;;5054349;28;20028;-81
2021/09/10 08:36:17;;;;;;;7.55;3.30;;;21.50;99.90;;;;;;5055923;28;20029;-81
2021/09/10 08:38:43;;;;;;;9.35;3.40;;;21.70;99.90;;;;;;5055742;28;20021;-80
2021/09/10 08:41:13;;;;;;;7.78;3.75;;;22.10;99.90;;;;;;5056156;28;20048;-80
2021/09/10 08:43:46;;;;;;;9.00;3.60;;;21.80;99.90;;;;;;5055795;28;20017;-80
2021/09/10 08:46:12;;;;;;;9.95;5.22;;;21.50;99.90;;;;;;5054195;28;20136;-80
2021/09/10 08:48:38;;;;;;;8.85;4.10;;;21.90;99.90;;;;;;5054170;28;20385;-80
2021/09/10 08:51:04;;;;;;;11.40;4.10;;;22.10;99.90;;;;;;5054264;28;20036;-81
2021/09/10 08:53:29;;;;;;;16.10;10.27;;;22.80;99.90;;;;;;5055973;28;20021;-81
2021/09/10 08:55:55;;;;;;;7.85;3.25;;;23.10;99.90;;;;;;5055583;28;20028;-81
2021/09/10 08:58:21;;;;;;;6.30;3.55;;;22.80;99.90;;;;;;5053875;28;20021;-81
2021/09/10 09:00:47;;;;;;;8.10;3.67;;;22.70;99.90;;;;;;5053793;28;20020;-80
2021/09/10 09:03:13;;;;;;;10.52;3.22;;;22.50;99.90;;;;;;5053791;28;20036;-81
2021/09/10 09:05:39;;;;;;;7.25;3.00;;;22.10;99.90;;;;;;5054847;28;20414;-81
2021/09/10 09:08:18;;;;;;;7.35;3.47;;;21.60;99.90;;;;;;5053651;28;20062;-80
2021/09/10 09:11:12;;;;;;;7.90;3.58;;;21.10;99.90;;;;;;5054068;28;20036;-80
2021/09/10 09:13:44;;;;;;;7.45;3.33;;;21.20;99.90;;;;;;5053783;28;20112;-81
2021/09/10 09:16:25;;;;;;;8.55;3.20;;;21.60;99.90;;;;;;5053271;28;20052;-81
2021/09/10 09:18:55;;;;;;;6.90;3.10;;;21.90;99.90;;;;;;5053257;28;20382;-81
2021/09/10 09:21:38;;;;;;;9.32;3.35;;;22.00;99.90;;;;;;5053419;28;20549;-82
2021/09/10 09:24:20;;;;;;;6.88;3.10;;;22.30;99.90;;;;;;5055156;28;20027;-81
2021/09/10 09:26:49;;;;;;;7.18;3.13;;;23.60;99.90;;;;;;5055131;28;20033;-81
2021/09/10 09:29:19;;;;;;;11.98;7.03;;;24.20;99.90;;;;;;5054516;28;20441;-82
2021/09/10 09:32:01;;;;;;;10.00;4.50;;;24.30;99.90;;;;;;5054493;28;20121;-82
2021/09/10 09:34:44;;;;;;;7.20;3.00;;;24.30;99.90;;;;;;5053008;28;20021;-82
2021/09/10 09:37:11;;;;;;;6.03;2.40;;;24.40;99.90;;;;;;5054945;28;20516;-81
2021/09/10 09:40:01;;;;;;;7.28;2.47;;;23.70;99.90;;;;;;5054620;28;20013;-80
2021/09/10 09:42:29;;;;;;;5.70;2.13;;;22.90;99.90;;;;;;5054615;28;20025;-81
2021/09/10 09:45:15;;;;;;;4.55;1.63;;;22.90;99.90;;;;;;5054216;28;20029;-81
2021/09/10 09:47:42;;;;;;;7.00;1.83;;;22.90;99.90;;;;;;5052887;28;20040;-81
2021/09/10 09:50:13;;;;;;;3.03;1.67;;;23.80;99.90;;;;;;5054677;28;20477;-81
2021/09/10 09:52:40;;;;;;;5.00;1.58;;;26.20;99.90;;;;;;5054280;28;20029;-82
2021/09/10 09:55:08;;;;;;;2.53;1.40;;;24.60;99.90;;;;;;5054318;28;20029;-83
2021/09/10 09:57:35;;;;;;;6.75;1.73;;;23.90;99.90;;;;;;5054541;28;20021;-83
2021/09/10 10:00:05;;;;;;;3.35;1.52;;;24.10;99.90;;;;;;5052575;28;20078;-83
2021/09/10 10:02:32;;;;;;;14.10;1.92;;;24.40;99.90;;;;;;5053952;28;20036;-82
2021/09/10 10:04:59;;;;;;;6.30;1.80;;;24.90;99.90;;;;;;5053855;28;20107;-82
2021/09/10 10:07:35;;;;;;;2.20;1.35;;;25.40;99.90;;;;;;5053875;28;20036;-82
2021/09/10 10:10:03;;;;;;;8.77;1.52;;;25.90;99.90;;;;;;5053778;28;20021;-84
2021/09/10 10:12:30;;;;;;;5.25;1.50;;;26.20;99.90;;;;;;5053649;28;20029;-83
2021/09/10 10:15:19;;;;;;;3.03;1.30;;;26.90;99.90;;;;;;5053611;28;20543;-83
2021/09/10 10:17:45;;;;;;;3.53;1.42;;;27.10;99.90;;;;;;5052102;28;20095;-83
2021/09/10 10:20:14;;;;;;;4.55;1.40;;;27.20;99.90;;;;;;5053585;28;20023;-82
2021/09/10 10:22:40;;;;;;;2.47;1.40;;;26.50;99.90;;;;;;5052973;28;20070;-82
2021/09/10 10:25:08;;;;;;;4.93;1.50;;;26.90;99.90;;;;;;5051966;28;20037;-82
2021/09/10 10:27:43;;;;;;;3.47;1.50;;;27.90;99.90;;;;;;5053490;28;20029;-82
2021/09/10 10:30:18;;;;;;;;;;;28.60;99.90;;;;;;5052342;28;20112;-81
2021/09/10 10:32:54;;;;;;;3.83;1.50;;;28.80;99.90;;;;;;5053832;28;19905;-81
2021/09/10 10:35:26;;;;;;;7.22;1.58;;;29.50;99.90;;;;;;5053631;28;20045;-82
2021/09/10 10:38:05;;;;;;;2.00;1.25;;;30.20;98.00;;;;;;5051776;28;20072;-81
2021/09/10 10:40:45;;;;;;;4.00;1.60;;;28.60;98.70;;;;;;5053602;28;20021;-81
2021/09/10 10:43:12;;;;;;;2.63;1.40;;;27.70;99.90;;;;;;5051702;28;20028;-82
2021/09/10 10:45:40;;;;;;;4.53;1.63;;;28.80;98.10;;;;;;5051772;28;20029;-82
2021/09/10 10:48:28;;;;;;;3.20;1.50;;;29.10;96.90;;;;;;5053072;28;20127;-83
2021/09/10 10:50:54;;;;;;;10.23;2.00;;;29.60;95.30;;;;;;5051839;28;20059;-82
2021/09/10 10:53:20;;;;;;;4.45;1.60;;;29.30;95.30;;;;;;5053328;28;20052;-82
2021/09/10 10:55:46;;;;;;;3.33;1.60;;;30.40;93.00;;;;;;5053087;28;20529;-82
2021/09/10 10:58:23;;;;;;;6.70;1.90;;;30.90;90.90;;;;;;5051765;28;20108;-82
2021/09/10 11:01:01;;;;;;;5.35;1.90;;;32.90;89.90;;;;;;5053109;28;20021;-83
2021/09/10 11:03:27;;;;;;;5.35;1.50;;;33.30;78.90;;;;;;5051216;28;20421;-83
2021/09/10 11:05:55;;;;;;;3.58;1.60;;;32.10;83.70;;;;;;5049593;28;20064;-82
2021/09/10 11:08:41;;;;;;;5.00;1.58;;;31.50;86.00;;;;;;5049820;28;20025;-83
2021/09/10 11:11:06;;;;;;;3.60;1.60;;;31.30;86.10;;;;;;5049509;28;20052;-82
2021/09/10 11:13:33;;;;;;;4.43;1.70;;;29.80;88.80;;;;;;5049698;28;20084;-82
2021/09/10 11:15:58;;;;;;;5.65;2.00;;;27.30;92.50;;;;;;5049961;28;20083;-83
2021/09/10 11:18:25;;;;;;;4.07;1.70;;;26.30;95.60;;;;;;5050146;28;20025;-82
2021/09/10 11:20:53;;;;;;;5.00;1.90;;;26.00;97.30;;;;;;5051568;28;20044;-83
2021/09/10 11:23:37;;;;;;;4.80;1.80;;;26.30;97.30;;;;;;5052868;28;20021;-82
2021/09/10 11:26:09;;;;;;;4.70;1.80;;;26.30;97.50;;;;;;5052992;28;20040;-82
2021/09/10 11:28:37;;;;;;;4.20;1.90;;;27.20;96.20;;;;;;5052820;28;20374;-82
2021/09/10 11:31:04;;;;;;;5.28;1.92;;;26.30;96.20;;;;;;5052729;28;20086;-82
2021/09/10 11:33:46;;;;;;;4.80;1.83;;;25.80;98.10;;;;;;5052687;28;20017;-82
2021/09/10 11:36:24;;;;;;;5.88;2.17;;;25.70;98.90;;;;;;5053577;28;20159;-82
2021/09/10 11:38:50;;;;;;;5.28;2.03;;;24.30;99.50;;;;;;5055057;28;20037;-82
2021/09/10 11:41:16;;;;;;;4.75;2.17;;;24.20;99.90;;;;;;5056536;28;20033;-82
2021/09/10 11:43:42;;;;;;;10.90;2.35;;;24.50;99.90;;;;;;5055227;28;20108;-82
2021/09/10 11:46:11;;;;;;;5.90;2.10;;;25.40;99.90;;;;;;5056294;28;20167;-82
2021/09/10 11:48:43;;;;;;;4.95;2.20;;;25.60;98.40;;;;;;5056396;28;20036;-82
2021/09/10 11:51:13;;;;;;;5.43;2.15;;;25.50;98.50;;;;;;5056412;28;20055;-82
2021/09/10 11:53:45;;;;;;;7.45;1.95;;;24.80;97.80;;;;;;5054674;28;20477;-82
2021/09/10 11:56:12;;;;;;;3.65;1.80;;;26.50;96.70;;;;;;5056289;28;20021;-82
2021/09/10 11:58:40;;;;;;;4.15;2.00;;;27.10;95.60;;;;;;5056216;28;20028;-82
2021/09/10 12:01:12;;;;;;;5.53;2.10;;;29.30;91.60;;;;;;5054913;28;20044;-81
2021/09/10 12:04:07;;;;;;;5.60;2.17;;;27.60;91.70;;;;;;5056103;28;20021;-82
2021/09/10 12:06:33;;;;;;;4.18;2.20;;;26.30;92.70;;;;;;5055106;28;20079;-81
2021/09/10 12:09:07;;;;;;;7.00;2.50;;;25.60;94.00;;;;;;5055997;28;20107;-81
2021/09/10 12:11:34;;;;;;;4.28;2.15;;;26.30;93.40;;;;;;5054714;28;20029;-81
2021/09/10 12:13:59;;;;;;;7.25;2.25;;;26.80;94.40;;;;;;5056381;28;20029;-81
2021/09/10 12:16:25;;;;;;;5.90;2.30;;;27.60;92.10;;;;;;5056418;28;20067;-82
2021/09/10 12:19:05;;;;;;;6.75;2.30;;;25.90;92.90;;;;;;5055908;28;20418;-82
2021/09/10 12:21:34;;;;;;;6.78;2.33;;;26.80;92.30;;;;;;5054312;28;20024;-82
2021/09/10 12:24:08;;;;;;;6.32;2.30;;;26.20;92.60;;;;;;5056376;28;20478;-81
2021/09/10 12:26:50;;;;;;;5.57;2.22;;;26.00;93.90;;;;;;5055673;28;20041;-82
2021/09/10 12:29:25;;;;;;;5.35;2.17;;;25.80;94.40;;;;;;5056216;28;20029;-82
2021/09/10 12:31:55;;;;;;;9.10;2.47;;;25.40;96.30;;;;;;5054105;28;20021;-82
2021/09/10 12:34:21;;;;;;;6.80;2.45;;;25.70;96.00;;;;;;5055556;28;20108;-81
2021/09/10 12:36:48;;;;;;;5.03;1.95;;;26.20;95.90;;;;;;5054488;28;20019;-81
2021/09/10 12:39:15;;;;;;;6.03;2.17;;;26.20;96.60;;;;;;5055487;28;20021;-82
2021/09/10 12:41:41;;;;;;;4.00;2.13;;;26.20;96.30;;;;;;5055393;28;20409;-81
2021/09/10 12:44:10;;;;;;;7.45;2.40;;;26.10;96.10;;;;;;5055413;28;20478;-81
2021/09/10 12:46:38;;;;;;;9.45;2.97;;;25.10;96.10;;;;;;5054064;28;20053;-81
2021/09/10 12:49:04;;;;;;;8.05;2.67;;;25.10;97.10;;;;;;5053962;28;20021;-82
2021/09/10 12:51:30;;;;;;;6.85;2.47;;;25.80;96.80;;;;;;5053921;28;20032;-82
2021/09/10 12:53:56;;;;;;;6.82;2.28;;;26.10;96.40;;;;;;5055599;28;20025;-82